sensor_id;sensor_type;location;lat;lon;timestamp;P1;durP1;ratioP1;P2;durP2;ratioP2
53959;SDS011;39866;48.638;-2.020;2023-03-14T00:01:18;5.13;;;1.58;;
53959;SDS011;39866;48.638;-2.020;2023-03-14T00:03:48;8.07;;;1.77;;
53959;SDS011;39866;48.638;-2.020;2023-03-14T00:06:13;7.93;;;1.90;;
53959;SDS011;39866;48.638;-2.020;2023-03-14T00:08:40;6.43;;;1.80;;
53959;SDS011;39866;48.638;-2.020;2023-03-14T00:11:07;6.20;;;1.60;;
53959;SDS011;39866;48.638;-2.020;2023-03-14T00:13:34;5.10;;;1.70;;
53959;SDS011;39866;48.638;-2.020;2023-03-14T00:16:03;5.43;;;1.40;;
53959;SDS011;39866;48.638;-2.020;2023-03-14T00:18:30;2.88;;;1.20;;
53959;SDS011;39866;48.638;-2.020;2023-03-14T00:20:57;4.10;;;1.27;;
53959;SDS011;39866;48.638;-2.020;2023-03-14T00:23:24;9.00;;;2.00;;
53959;SDS011;39866;48.638;-2.020;2023-03-14T00:25:49;16.25;;;3.65;;
53959;SDS011;39866;48.638;-2.020;2023-03-14T00:28:14;20.92;;;4.05;;
53959;SDS011;39866;48.638;-2.020;2023-03-14T00:30:39;32.25;;;5.20;;
53959;SDS011;39866;48.638;-2.020;2023-03-14T00:33:05;34.88;;;6.10;;
53959;SDS011;39866;48.638;-2.020;2023-03-14T00:35:30;34.15;;;6.00;;
53959;SDS011;39866;48.638;-2.020;2023-03-14T00:37:55;37.05;;;6.97;;
53959;SDS011;39866;48.638;-2.020;2023-03-14T00:40:21;33.88;;;6.32;;
53959;SDS011;39866;48.638;-2.020;2023-03-14T00:42:46;36.47;;;6.22;;
53959;SDS011;39866;48.638;-2.020;2023-03-14T00:45:11;34.15;;;5.90;;
53959;SDS011;39866;48.638;-2.020;2023-03-14T00:47:37;36.83;;;6.95;;
53959;SDS011;39866;48.638;-2.020;2023-03-14T00:50:02;36.92;;;6.78;;
53959;SDS011;39866;48.638;-2.020;2023-03-14T00:52:28;33.78;;;6.43;;
53959;SDS011;39866;48.638;-2.020;2023-03-14T00:54:53;33.53;;;7.60;;
53959;SDS011;39866;48.638;-2.020;2023-03-14T00:57:18;36.83;;;7.47;;
53959;SDS011;39866;48.638;-2.020;2023-03-14T00:59:43;40.63;;;6.38;;
53959;SDS011;39866;48.638;-2.020;2023-03-14T01:02:09;40.95;;;7.38;;
53959;SDS011;39866;48.638;-2.020;2023-03-14T01:04:34;43.63;;;8.20;;
53959;SDS011;39866;48.638;-2.020;2023-03-14T01:06:59;28.67;;;5.80;;
53959;SDS011;39866;48.638;-2.020;2023-03-14T01:09:25;37.63;;;6.63;;
53959;SDS011;39866;48.638;-2.020;2023-03-14T01:11:50;35.00;;;7.32;;
53959;SDS011;39866;48.638;-2.020;2023-03-14T01:14:15;39.10;;;6.78;;
53959;SDS011;39866;48.638;-2.020;2023-03-14T01:16:41;42.97;;;7.13;;
53959;SDS011;39866;48.638;-2.020;2023-03-14T01:19:06;31.45;;;7.20;;
53959;SDS011;39866;48.638;-2.020;2023-03-14T01:21:33;43.53;;;8.15;;
53959;SDS011;39866;48.638;-2.020;2023-03-14T01:24:00;48.45;;;8.20;;
53959;SDS011;39866;48.638;-2.020;2023-03-14T01:26:29;34.67;;;6.72;;
53959;SDS011;39866;48.638;-2.020;2023-03-14T01:28:56;48.15;;;8.43;;
53959;SDS011;39866;48.638;-2.020;2023-03-14T01:31:22;43.22;;;7.82;;
53959;SDS011;39866;48.638;-2.020;2023-03-14T01:33:48;41.42;;;8.05;;
53959;SDS011;39866;48.638;-2.020;2023-03-14T01:36:14;44.70;;;8.80;;
53959;SDS011;39866;48.638;-2.020;2023-03-14T01:38:40;45.75;;;7.85;;
53959;SDS011;39866;48.638;-2.020;2023-03-14T01:41:07;44.15;;;7.53;;
53959;SDS011;39866;48.638;-2.020;2023-03-14T01:43:36;39.42;;;7.40;;
53959;SDS011;39866;48.638;-2.020;2023-03-14T01:46:12;44.38;;;7.30;;
53959;SDS011;39866;48.638;-2.020;2023-03-14T01:54:14;32.40;;;7.47;;
53959;SDS011;39866;48.638;-2.020;2023-03-14T01:56:42;35.67;;;8.13;;
53959;SDS011;39866;48.638;-2.020;2023-03-14T01:59:10;38.20;;;6.80;;
53959;SDS011;39866;48.638;-2.020;2023-03-14T02:01:37;42.55;;;7.95;;
53959;SDS011;39866;48.638;-2.020;2023-03-14T02:04:06;30.65;;;6.90;;
53959;SDS011;39866;48.638;-2.020;2023-03-14T02:06:41;34.03;;;7.03;;
53959;SDS011;39866;48.638;-2.020;2023-03-14T02:09:12;32.65;;;7.40;;
53959;SDS011;39866;48.638;-2.020;2023-03-14T02:11:37;31.67;;;6.78;;
53959;SDS011;39866;48.638;-2.020;2023-03-14T02:14:03;38.13;;;7.20;;
53959;SDS011;39866;48.638;-2.020;2023-03-14T02:16:29;32.85;;;6.95;;
53959;SDS011;39866;48.638;-2.020;2023-03-14T02:18:55;27.83;;;6.82;;
53959;SDS011;39866;48.638;-2.020;2023-03-14T02:21:34;32.95;;;6.60;;
53959;SDS011;39866;48.638;-2.020;2023-03-14T02:27:24;30.17;;;6.28;;
53959;SDS011;39866;48.638;-2.020;2023-03-14T02:29:57;29.38;;;5.75;;
53959;SDS011;39866;48.638;-2.020;2023-03-14T02:32:33;25.73;;;6.10;;
53959;SDS011;39866;48.638;-2.020;2023-03-14T02:35:03;35.53;;;6.47;;
53959;SDS011;39866;48.638;-2.020;2023-03-14T02:38:17;31.30;;;7.20;;
53959;SDS011;39866;48.638;-2.020;2023-03-14T02:40:33;29.85;;;6.35;;
53959;SDS011;39866;48.638;-2.020;2023-03-14T02:42:58;28.92;;;6.20;;
53959;SDS011;39866;48.638;-2.020;2023-03-14T02:55:28;31.90;;;6.10;;
53959;SDS011;39866;48.638;-2.020;2023-03-14T02:57:54;33.17;;;7.15;;
53959;SDS011;39866;48.638;-2.020;2023-03-14T03:00:19;26.92;;;5.78;;
53959;SDS011;39866;48.638;-2.020;2023-03-14T03:02:45;32.58;;;6.95;;
53959;SDS011;39866;48.638;-2.020;2023-03-14T03:05:11;30.13;;;6.90;;
53959;SDS011;39866;48.638;-2.020;2023-03-14T03:07:36;36.00;;;6.82;;
53959;SDS011;39866;48.638;-2.020;2023-03-14T03:10:02;33.65;;;7.40;;
53959;SDS011;39866;48.638;-2.020;2023-03-14T03:12:28;38.83;;;7.50;;
53959;SDS011;39866;48.638;-2.020;2023-03-14T03:14:53;29.30;;;6.15;;
53959;SDS011;39866;48.638;-2.020;2023-03-14T03:17:19;24.45;;;5.38;;
53959;SDS011;39866;48.638;-2.020;2023-03-14T03:19:44;23.83;;;5.82;;
53959;SDS011;39866;48.638;-2.020;2023-03-14T03:22:09;25.23;;;5.25;;
53959;SDS011;39866;48.638;-2.020;2023-03-14T03:24:35;22.73;;;4.80;;
53959;SDS011;39866;48.638;-2.020;2023-03-14T03:27:00;21.83;;;5.10;;
53959;SDS011;39866;48.638;-2.020;2023-03-14T03:29:25;26.73;;;6.10;;
53959;SDS011;39866;48.638;-2.020;2023-03-14T03:31:51;26.98;;;6.53;;
53959;SDS011;39866;48.638;-2.020;2023-03-14T03:34:17;26.42;;;4.95;;
53959;SDS011;39866;48.638;-2.020;2023-03-14T03:36:43;29.95;;;6.18;;
53959;SDS011;39866;48.638;-2.020;2023-03-14T03:39:08;30.17;;;4.80;;
53959;SDS011;39866;48.638;-2.020;2023-03-14T03:41:34;26.40;;;5.55;;
53959;SDS011;39866;48.638;-2.020;2023-03-14T03:43:59;32.42;;;6.15;;
53959;SDS011;39866;48.638;-2.020;2023-03-14T03:46:24;29.52;;;4.93;;
53959;SDS011;39866;48.638;-2.020;2023-03-14T03:48:56;29.02;;;5.95;;
53959;SDS011;39866;48.638;-2.020;2023-03-14T03:51:23;25.07;;;5.47;;
53959;SDS011;39866;48.638;-2.020;2023-03-14T03:53:48;32.28;;;5.85;;
53959;SDS011;39866;48.638;-2.020;2023-03-14T03:56:14;21.52;;;4.60;;
53959;SDS011;39866;48.638;-2.020;2023-03-14T03:58:39;25.20;;;4.70;;
53959;SDS011;39866;48.638;-2.020;2023-03-14T04:01:05;26.80;;;5.82;;
53959;SDS011;39866;48.638;-2.020;2023-03-14T04:03:32;33.20;;;5.68;;
53959;SDS011;39866;48.638;-2.020;2023-03-14T04:06:18;27.85;;;5.93;;
53959;SDS011;39866;48.638;-2.020;2023-03-14T04:08:43;35.33;;;6.95;;
53959;SDS011;39866;48.638;-2.020;2023-03-14T04:11:09;37.15;;;7.00;;
53959;SDS011;39866;48.638;-2.020;2023-03-14T04:13:34;36.15;;;6.68;;
53959;SDS011;39866;48.638;-2.020;2023-03-14T04:16:00;32.83;;;6.82;;
53959;SDS011;39866;48.638;-2.020;2023-03-14T04:18:25;40.85;;;7.65;;
53959;SDS011;39866;48.638;-2.020;2023-03-14T04:20:52;33.95;;;7.93;;
53959;SDS011;39866;48.638;-2.020;2023-03-14T04:23:19;41.95;;;7.22;;
53959;SDS011;39866;48.638;-2.020;2023-03-14T04:25:45;42.17;;;8.35;;
53959;SDS011;39866;48.638;-2.020;2023-03-14T04:28:10;33.65;;;6.47;;
53959;SDS011;39866;48.638;-2.020;2023-03-14T04:30:36;44.17;;;7.75;;
53959;SDS011;39866;48.638;-2.020;2023-03-14T04:33:01;32.70;;;8.02;;
53959;SDS011;39866;48.638;-2.020;2023-03-14T04:35:26;46.15;;;7.88;;
53959;SDS011;39866;48.638;-2.020;2023-03-14T04:37:52;40.65;;;7.72;;
53959;SDS011;39866;48.638;-2.020;2023-03-14T04:40:17;39.78;;;7.60;;
53959;SDS011;39866;48.638;-2.020;2023-03-14T04:42:43;34.88;;;7.40;;
53959;SDS011;39866;48.638;-2.020;2023-03-14T04:45:09;38.63;;;6.93;;
53959;SDS011;39866;48.638;-2.020;2023-03-14T04:47:35;32.90;;;6.88;;
53959;SDS011;39866;48.638;-2.020;2023-03-14T04:50:00;24.65;;;5.07;;
53959;SDS011;39866;48.638;-2.020;2023-03-14T04:52:26;30.73;;;6.15;;
53959;SDS011;39866;48.638;-2.020;2023-03-14T04:54:51;35.60;;;6.07;;
53959;SDS011;39866;48.638;-2.020;2023-03-14T04:57:17;30.73;;;6.07;;
53959;SDS011;39866;48.638;-2.020;2023-03-14T04:59:42;24.00;;;5.15;;
53959;SDS011;39866;48.638;-2.020;2023-03-14T05:02:08;29.67;;;5.57;;
53959;SDS011;39866;48.638;-2.020;2023-03-14T05:04:33;30.15;;;5.65;;
53959;SDS011;39866;48.638;-2.020;2023-03-14T05:06:59;31.52;;;6.10;;
53959;SDS011;39866;48.638;-2.020;2023-03-14T05:09:24;40.60;;;6.40;;
53959;SDS011;39866;48.638;-2.020;2023-03-14T05:11:50;30.75;;;6.45;;
53959;SDS011;39866;48.638;-2.020;2023-03-14T05:14:15;28.88;;;6.63;;
53959;SDS011;39866;48.638;-2.020;2023-03-14T05:16:41;37.83;;;5.85;;
53959;SDS011;39866;48.638;-2.020;2023-03-14T05:19:06;32.10;;;6.05;;
53959;SDS011;39866;48.638;-2.020;2023-03-14T05:21:31;22.83;;;5.32;;
53959;SDS011;39866;48.638;-2.020;2023-03-14T05:23:57;26.38;;;5.03;;
53959;SDS011;39866;48.638;-2.020;2023-03-14T05:26:22;19.90;;;5.10;;
53959;SDS011;39866;48.638;-2.020;2023-03-14T05:28:48;25.45;;;4.88;;
53959;SDS011;39866;48.638;-2.020;2023-03-14T05:31:13;20.38;;;4.28;;
53959;SDS011;39866;48.638;-2.020;2023-03-14T05:33:39;27.10;;;5.95;;
53959;SDS011;39866;48.638;-2.020;2023-03-14T05:36:05;24.30;;;5.20;;
53959;SDS011;39866;48.638;-2.020;2023-03-14T05:38:31;35.50;;;5.97;;
53959;SDS011;39866;48.638;-2.020;2023-03-14T05:40:56;25.83;;;5.53;;
53959;SDS011;39866;48.638;-2.020;2023-03-14T05:43:21;26.40;;;5.38;;
53959;SDS011;39866;48.638;-2.020;2023-03-14T05:45:47;27.80;;;7.05;;
53959;SDS011;39866;48.638;-2.020;2023-03-14T05:48:12;34.35;;;7.63;;
53959;SDS011;39866;48.638;-2.020;2023-03-14T05:50:37;31.40;;;6.97;;
53959;SDS011;39866;48.638;-2.020;2023-03-14T05:53:03;30.35;;;6.53;;
53959;SDS011;39866;48.638;-2.020;2023-03-14T05:55:28;35.60;;;7.55;;
53959;SDS011;39866;48.638;-2.020;2023-03-14T05:57:54;25.35;;;6.05;;
53959;SDS011;39866;48.638;-2.020;2023-03-14T06:00:19;34.35;;;5.90;;
53959;SDS011;39866;48.638;-2.020;2023-03-14T06:02:46;27.15;;;5.30;;
53959;SDS011;39866;48.638;-2.020;2023-03-14T06:05:11;25.00;;;5.63;;
53959;SDS011;39866;48.638;-2.020;2023-03-14T06:07:37;21.45;;;4.90;;
53959;SDS011;39866;48.638;-2.020;2023-03-14T06:10:02;19.48;;;4.90;;
53959;SDS011;39866;48.638;-2.020;2023-03-14T06:12:28;25.90;;;4.85;;
53959;SDS011;39866;48.638;-2.020;2023-03-14T06:14:54;34.67;;;6.35;;
53959;SDS011;39866;48.638;-2.020;2023-03-14T06:17:19;24.92;;;5.18;;
53959;SDS011;39866;48.638;-2.020;2023-03-14T06:19:45;30.02;;;6.13;;
53959;SDS011;39866;48.638;-2.020;2023-03-14T06:22:10;26.63;;;6.45;;
53959;SDS011;39866;48.638;-2.020;2023-03-14T06:24:36;19.27;;;5.20;;
53959;SDS011;39866;48.638;-2.020;2023-03-14T06:27:01;16.70;;;4.70;;
53959;SDS011;39866;48.638;-2.020;2023-03-14T06:29:27;18.80;;;4.88;;
53959;SDS011;39866;48.638;-2.020;2023-03-14T06:31:54;21.05;;;5.45;;
53959;SDS011;39866;48.638;-2.020;2023-03-14T06:34:19;24.08;;;5.47;;
53959;SDS011;39866;48.638;-2.020;2023-03-14T06:36:45;30.08;;;6.18;;
53959;SDS011;39866;48.638;-2.020;2023-03-14T06:39:10;21.92;;;5.20;;
53959;SDS011;39866;48.638;-2.020;2023-03-14T06:41:35;24.10;;;4.85;;
53959;SDS011;39866;48.638;-2.020;2023-03-14T06:44:01;34.42;;;6.10;;
53959;SDS011;39866;48.638;-2.020;2023-03-14T06:46:26;27.85;;;6.25;;
53959;SDS011;39866;48.638;-2.020;2023-03-14T06:48:51;32.50;;;7.57;;
53959;SDS011;39866;48.638;-2.020;2023-03-14T06:51:17;31.30;;;7.13;;
53959;SDS011;39866;48.638;-2.020;2023-03-14T06:53:42;30.73;;;6.00;;
53959;SDS011;39866;48.638;-2.020;2023-03-14T06:56:08;31.40;;;7.07;;
53959;SDS011;39866;48.638;-2.020;2023-03-14T06:58:33;26.42;;;6.55;;
53959;SDS011;39866;48.638;-2.020;2023-03-14T07:00:59;28.88;;;6.60;;
53959;SDS011;39866;48.638;-2.020;2023-03-14T07:03:24;24.77;;;6.40;;
53959;SDS011;39866;48.638;-2.020;2023-03-14T07:05:50;35.65;;;6.97;;
53959;SDS011;39866;48.638;-2.020;2023-03-14T07:08:15;23.35;;;5.30;;
53959;SDS011;39866;48.638;-2.020;2023-03-14T07:10:41;15.63;;;4.22;;
53959;SDS011;39866;48.638;-2.020;2023-03-14T07:13:06;24.73;;;4.53;;
53959;SDS011;39866;48.638;-2.020;2023-03-14T07:15:32;25.95;;;5.75;;
53959;SDS011;39866;48.638;-2.020;2023-03-14T07:17:57;24.40;;;6.00;;
53959;SDS011;39866;48.638;-2.020;2023-03-14T07:20:23;31.02;;;7.22;;
53959;SDS011;39866;48.638;-2.020;2023-03-14T07:22:48;35.30;;;7.05;;
53959;SDS011;39866;48.638;-2.020;2023-03-14T07:25:15;30.80;;;6.55;;
53959;SDS011;39866;48.638;-2.020;2023-03-14T07:27:43;35.55;;;6.65;;
53959;SDS011;39866;48.638;-2.020;2023-03-14T07:30:09;26.92;;;6.47;;
53959;SDS011;39866;48.638;-2.020;2023-03-14T07:32:35;26.17;;;6.53;;
53959;SDS011;39866;48.638;-2.020;2023-03-14T07:35:01;28.75;;;6.18;;
53959;SDS011;39866;48.638;-2.020;2023-03-14T07:37:26;24.80;;;5.70;;
53959;SDS011;39866;48.638;-2.020;2023-03-14T07:39:51;23.45;;;5.80;;
53959;SDS011;39866;48.638;-2.020;2023-03-14T07:42:17;31.15;;;5.68;;
53959;SDS011;39866;48.638;-2.020;2023-03-14T07:44:42;25.25;;;6.05;;
53959;SDS011;39866;48.638;-2.020;2023-03-14T07:47:07;30.92;;;5.60;;
53959;SDS011;39866;48.638;-2.020;2023-03-14T07:49:33;32.30;;;6.03;;
53959;SDS011;39866;48.638;-2.020;2023-03-14T07:51:58;22.77;;;4.97;;
53959;SDS011;39866;48.638;-2.020;2023-03-14T07:54:24;24.15;;;5.40;;
53959;SDS011;39866;48.638;-2.020;2023-03-14T07:56:49;26.02;;;5.47;;
53959;SDS011;39866;48.638;-2.020;2023-03-14T07:59:16;26.08;;;5.78;;
53959;SDS011;39866;48.638;-2.020;2023-03-14T08:01:42;31.00;;;6.03;;
53959;SDS011;39866;48.638;-2.020;2023-03-14T08:04:07;27.05;;;5.35;;
53959;SDS011;39866;48.638;-2.020;2023-03-14T08:06:34;27.55;;;5.35;;
53959;SDS011;39866;48.638;-2.020;2023-03-14T08:09:00;24.13;;;4.70;;
53959;SDS011;39866;48.638;-2.020;2023-03-14T08:11:26;26.50;;;5.18;;
53959;SDS011;39866;48.638;-2.020;2023-03-14T08:13:51;30.50;;;4.88;;
53959;SDS011;39866;48.638;-2.020;2023-03-14T08:16:17;15.90;;;3.35;;
53959;SDS011;39866;48.638;-2.020;2023-03-14T08:18:43;18.05;;;4.03;;
53959;SDS011;39866;48.638;-2.020;2023-03-14T08:21:09;24.45;;;4.38;;
53959;SDS011;39866;48.638;-2.020;2023-03-14T08:23:34;21.67;;;4.57;;
53959;SDS011;39866;48.638;-2.020;2023-03-14T08:25:59;24.83;;;4.95;;
53959;SDS011;39866;48.638;-2.020;2023-03-14T08:28:25;26.83;;;5.88;;
53959;SDS011;39866;48.638;-2.020;2023-03-14T08:30:55;32.33;;;5.30;;
53959;SDS011;39866;48.638;-2.020;2023-03-14T08:33:21;31.50;;;6.50;;
53959;SDS011;39866;48.638;-2.020;2023-03-14T08:35:46;27.52;;;5.30;;
53959;SDS011;39866;48.638;-2.020;2023-03-14T08:38:12;29.67;;;4.78;;
53959;SDS011;39866;48.638;-2.020;2023-03-14T08:40:37;19.92;;;5.03;;
53959;SDS011;39866;48.638;-2.020;2023-03-14T08:43:03;26.35;;;4.70;;
53959;SDS011;39866;48.638;-2.020;2023-03-14T08:45:28;23.67;;;5.18;;
53959;SDS011;39866;48.638;-2.020;2023-03-14T08:47:53;23.08;;;4.25;;
53959;SDS011;39866;48.638;-2.020;2023-03-14T08:50:19;19.42;;;4.00;;
53959;SDS011;39866;48.638;-2.020;2023-03-14T08:52:44;18.60;;;4.15;;
53959;SDS011;39866;48.638;-2.020;2023-03-14T08:55:09;20.92;;;4.30;;
53959;SDS011;39866;48.638;-2.020;2023-03-14T08:57:35;18.02;;;4.07;;
53959;SDS011;39866;48.638;-2.020;2023-03-14T09:00:02;16.50;;;4.75;;
53959;SDS011;39866;48.638;-2.020;2023-03-14T09:02:30;25.40;;;5.07;;
53959;SDS011;39866;48.638;-2.020;2023-03-14T09:04:55;24.75;;;5.97;;
53959;SDS011;39866;48.638;-2.020;2023-03-14T09:07:21;30.13;;;5.05;;
53959;SDS011;39866;48.638;-2.020;2023-03-14T09:09:46;25.05;;;5.28;;
53959;SDS011;39866;48.638;-2.020;2023-03-14T09:12:12;22.42;;;5.10;;
53959;SDS011;39866;48.638;-2.020;2023-03-14T09:14:37;20.95;;;4.70;;
53959;SDS011;39866;48.638;-2.020;2023-03-14T09:17:03;24.85;;;5.28;;
53959;SDS011;39866;48.638;-2.020;2023-03-14T09:19:29;24.85;;;5.03;;
53959;SDS011;39866;48.638;-2.020;2023-03-14T09:21:55;20.55;;;4.60;;
53959;SDS011;39866;48.638;-2.020;2023-03-14T09:24:20;24.13;;;4.57;;
53959;SDS011;39866;48.638;-2.020;2023-03-14T09:26:45;26.20;;;5.53;;
53959;SDS011;39866;48.638;-2.020;2023-03-14T09:29:11;28.42;;;5.40;;
53959;SDS011;39866;48.638;-2.020;2023-03-14T09:31:36;26.95;;;5.78;;
53959;SDS011;39866;48.638;-2.020;2023-03-14T09:34:01;33.88;;;6.43;;
53959;SDS011;39866;48.638;-2.020;2023-03-14T09:36:27;31.20;;;5.57;;
53959;SDS011;39866;48.638;-2.020;2023-03-14T09:38:52;32.20;;;5.50;;
53959;SDS011;39866;48.638;-2.020;2023-03-14T09:44:08;27.95;;;5.45;;
53959;SDS011;39866;48.638;-2.020;2023-03-14T09:46:42;26.70;;;5.38;;
53959;SDS011;39866;48.638;-2.020;2023-03-14T09:51:51;33.22;;;6.22;;
53959;SDS011;39866;48.638;-2.020;2023-03-14T09:54:35;26.90;;;6.35;;
53959;SDS011;39866;48.638;-2.020;2023-03-14T09:57:02;33.50;;;6.20;;
53959;SDS011;39866;48.638;-2.020;2023-03-14T09:59:29;33.72;;;7.00;;
53959;SDS011;39866;48.638;-2.020;2023-03-14T10:01:56;35.33;;;6.57;;
53959;SDS011;39866;48.638;-2.020;2023-03-14T10:04:26;32.70;;;6.72;;
53959;SDS011;39866;48.638;-2.020;2023-03-14T10:06:53;36.15;;;6.88;;
53959;SDS011;39866;48.638;-2.020;2023-03-14T10:09:22;37.22;;;7.35;;
53959;SDS011;39866;48.638;-2.020;2023-03-14T10:11:53;42.20;;;6.78;;
53959;SDS011;39866;48.638;-2.020;2023-03-14T10:14:29;37.75;;;7.03;;
53959;SDS011;39866;48.638;-2.020;2023-03-14T10:16:59;31.77;;;6.30;;
53959;SDS011;39866;48.638;-2.020;2023-03-14T10:19:30;38.55;;;6.38;;
53959;SDS011;39866;48.638;-2.020;2023-03-14T10:21:55;33.08;;;7.00;;
53959;SDS011;39866;48.638;-2.020;2023-03-14T10:26:53;30.83;;;6.32;;
53959;SDS011;39866;48.638;-2.020;2023-03-14T10:29:20;29.02;;;6.35;;
53959;SDS011;39866;48.638;-2.020;2023-03-14T10:34:29;25.77;;;6.75;;
53959;SDS011;39866;48.638;-2.020;2023-03-14T10:37:18;32.70;;;6.45;;
53959;SDS011;39866;48.638;-2.020;2023-03-14T10:39:47;34.25;;;7.22;;
53959;SDS011;39866;48.638;-2.020;2023-03-14T10:42:25;32.38;;;6.72;;
53959;SDS011;39866;48.638;-2.020;2023-03-14T10:45:00;26.65;;;6.80;;
53959;SDS011;39866;48.638;-2.020;2023-03-14T10:47:32;34.38;;;6.72;;
53959;SDS011;39866;48.638;-2.020;2023-03-14T10:50:20;41.17;;;7.65;;
53959;SDS011;39866;48.638;-2.020;2023-03-14T10:52:54;34.20;;;6.85;;
53959;SDS011;39866;48.638;-2.020;2023-03-14T10:55:23;31.77;;;7.30;;
53959;SDS011;39866;48.638;-2.020;2023-03-14T10:57:49;33.08;;;6.80;;
53959;SDS011;39866;48.638;-2.020;2023-03-14T11:00:21;28.27;;;6.65;;
53959;SDS011;39866;48.638;-2.020;2023-03-14T11:08:11;35.72;;;7.45;;
53959;SDS011;39866;48.638;-2.020;2023-03-14T11:10:50;35.17;;;7.10;;
53959;SDS011;39866;48.638;-2.020;2023-03-14T11:27:22;32.10;;;6.53;;
53959;SDS011;39866;48.638;-2.020;2023-03-14T11:35:24;33.30;;;7.20;;
53959;SDS011;39866;48.638;-2.020;2023-03-14T11:40:36;31.92;;;7.05;;
53959;SDS011;39866;48.638;-2.020;2023-03-14T11:43:06;37.83;;;7.90;;
53959;SDS011;39866;48.638;-2.020;2023-03-14T11:45:38;32.10;;;7.20;;
53959;SDS011;39866;48.638;-2.020;2023-03-14T11:50:51;29.27;;;7.10;;
53959;SDS011;39866;48.638;-2.020;2023-03-14T11:53:26;34.53;;;7.35;;
53959;SDS011;39866;48.638;-2.020;2023-03-14T11:56:06;38.50;;;7.65;;
53959;SDS011;39866;48.638;-2.020;2023-03-14T11:58:43;28.83;;;6.80;;
53959;SDS011;39866;48.638;-2.020;2023-03-14T12:01:19;35.90;;;7.15;;
53959;SDS011;39866;48.638;-2.020;2023-03-14T12:04:14;42.77;;;7.77;;
53959;SDS011;39866;48.638;-2.020;2023-03-14T12:06:50;35.45;;;6.88;;
53959;SDS011;39866;48.638;-2.020;2023-03-14T12:09:16;28.02;;;5.93;;
53959;SDS011;39866;48.638;-2.020;2023-03-14T12:14:26;28.83;;;5.72;;
53959;SDS011;39866;48.638;-2.020;2023-03-14T12:16:55;36.45;;;7.00;;
53959;SDS011;39866;48.638;-2.020;2023-03-14T12:19:29;29.50;;;6.32;;
53959;SDS011;39866;48.638;-2.020;2023-03-14T12:21:58;30.42;;;6.25;;
53959;SDS011;39866;48.638;-2.020;2023-03-14T12:24:26;26.90;;;6.28;;
53959;SDS011;39866;48.638;-2.020;2023-03-14T12:27:04;29.77;;;6.07;;
53959;SDS011;39866;48.638;-2.020;2023-03-14T12:29:31;24.50;;;5.50;;
53959;SDS011;39866;48.638;-2.020;2023-03-14T12:34:27;20.65;;;5.15;;
53959;SDS011;39866;48.638;-2.020;2023-03-14T12:36:56;24.20;;;5.65;;
53959;SDS011;39866;48.638;-2.020;2023-03-14T12:42:02;19.33;;;5.47;;
53959;SDS011;39866;48.638;-2.020;2023-03-14T12:44:39;31.20;;;6.30;;
53959;SDS011;39866;48.638;-2.020;2023-03-14T12:49:48;23.50;;;5.85;;
53959;SDS011;39866;48.638;-2.020;2023-03-14T12:52:16;21.02;;;4.88;;
53959;SDS011;39866;48.638;-2.020;2023-03-14T12:59:48;20.30;;;5.35;;
53959;SDS011;39866;48.638;-2.020;2023-03-14T13:02:21;27.08;;;5.10;;
53959;SDS011;39866;48.638;-2.020;2023-03-14T13:13:20;23.55;;;4.88;;
53959;SDS011;39866;48.638;-2.020;2023-03-14T13:15:48;24.45;;;5.72;;
53959;SDS011;39866;48.638;-2.020;2023-03-14T13:18:33;19.85;;;4.57;;
53959;SDS011;39866;48.638;-2.020;2023-03-14T13:21:03;19.63;;;5.35;;
53959;SDS011;39866;48.638;-2.020;2023-03-14T13:23:32;23.15;;;5.35;;
53959;SDS011;39866;48.638;-2.020;2023-03-14T13:25:59;20.70;;;5.00;;
53959;SDS011;39866;48.638;-2.020;2023-03-14T13:28:26;18.40;;;5.60;;
53959;SDS011;39866;48.638;-2.020;2023-03-14T13:30:59;19.55;;;4.97;;
53959;SDS011;39866;48.638;-2.020;2023-03-14T13:33:26;17.95;;;4.30;;
53959;SDS011;39866;48.638;-2.020;2023-03-14T13:35:56;17.08;;;5.40;;
53959;SDS011;39866;48.638;-2.020;2023-03-14T13:38:27;21.17;;;4.97;;
53959;SDS011;39866;48.638;-2.020;2023-03-14T13:40:55;21.92;;;5.18;;
53959;SDS011;39866;48.638;-2.020;2023-03-14T13:43:29;17.00;;;4.53;;
53959;SDS011;39866;48.638;-2.020;2023-03-14T13:48:31;15.25;;;4.28;;
53959;SDS011;39866;48.638;-2.020;2023-03-14T13:51:03;15.45;;;3.97;;
53959;SDS011;39866;48.638;-2.020;2023-03-14T13:53:31;19.17;;;4.70;;
53959;SDS011;39866;48.638;-2.020;2023-03-14T13:56:00;16.10;;;4.13;;
53959;SDS011;39866;48.638;-2.020;2023-03-14T13:58:28;18.75;;;4.43;;
53959;SDS011;39866;48.638;-2.020;2023-03-14T14:03:48;19.55;;;4.65;;
53959;SDS011;39866;48.638;-2.020;2023-03-14T14:06:22;19.33;;;4.40;;
53959;SDS011;39866;48.638;-2.020;2023-03-14T14:08:52;15.25;;;4.90;;
53959;SDS011;39866;48.638;-2.020;2023-03-14T14:11:21;23.13;;;5.00;;
53959;SDS011;39866;48.638;-2.020;2023-03-14T14:13:55;27.85;;;5.05;;
53959;SDS011;39866;48.638;-2.020;2023-03-14T14:16:23;13.95;;;4.07;;
53959;SDS011;39866;48.638;-2.020;2023-03-14T14:18:51;16.50;;;4.95;;
53959;SDS011;39866;48.638;-2.020;2023-03-14T14:21:18;24.73;;;5.18;;
53959;SDS011;39866;48.638;-2.020;2023-03-14T14:23:44;24.00;;;4.45;;
53959;SDS011;39866;48.638;-2.020;2023-03-14T14:26:13;17.30;;;4.18;;
53959;SDS011;39866;48.638;-2.020;2023-03-14T14:28:41;17.63;;;5.20;;
53959;SDS011;39866;48.638;-2.020;2023-03-14T14:33:45;23.40;;;4.93;;
53959;SDS011;39866;48.638;-2.020;2023-03-14T14:36:31;17.08;;;4.50;;
53959;SDS011;39866;48.638;-2.020;2023-03-14T14:39:00;16.90;;;4.65;;
53959;SDS011;39866;48.638;-2.020;2023-03-14T14:41:39;13.50;;;3.83;;
53959;SDS011;39866;48.638;-2.020;2023-03-14T14:44:06;20.88;;;4.80;;
53959;SDS011;39866;48.638;-2.020;2023-03-14T14:46:33;15.77;;;4.13;;
53959;SDS011;39866;48.638;-2.020;2023-03-14T14:49:20;16.77;;;4.25;;
53959;SDS011;39866;48.638;-2.020;2023-03-14T14:51:49;16.70;;;4.22;;
53959;SDS011;39866;48.638;-2.020;2023-03-14T14:54:19;20.77;;;4.68;;
53959;SDS011;39866;48.638;-2.020;2023-03-14T14:57:01;21.45;;;4.75;;
53959;SDS011;39866;48.638;-2.020;2023-03-14T14:59:29;17.52;;;4.25;;
53959;SDS011;39866;48.638;-2.020;2023-03-14T15:01:58;19.08;;;5.03;;
53959;SDS011;39866;48.638;-2.020;2023-03-14T15:04:25;20.38;;;4.53;;
53959;SDS011;39866;48.638;-2.020;2023-03-14T15:06:52;23.75;;;4.47;;
53959;SDS011;39866;48.638;-2.020;2023-03-14T15:09:18;15.32;;;4.43;;
53959;SDS011;39866;48.638;-2.020;2023-03-14T15:11:44;16.00;;;4.13;;
53959;SDS011;39866;48.638;-2.020;2023-03-14T15:14:10;18.77;;;5.43;;
53959;SDS011;39866;48.638;-2.020;2023-03-14T15:16:36;21.42;;;4.95;;
53959;SDS011;39866;48.638;-2.020;2023-03-14T15:21:59;15.65;;;5.07;;
53959;SDS011;39866;48.638;-2.020;2023-03-14T15:24:24;19.48;;;3.95;;
53959;SDS011;39866;48.638;-2.020;2023-03-14T15:26:50;14.52;;;3.42;;
53959;SDS011;39866;48.638;-2.020;2023-03-14T15:29:15;11.05;;;3.15;;
53959;SDS011;39866;48.638;-2.020;2023-03-14T15:31:41;17.33;;;3.38;;
53959;SDS011;39866;48.638;-2.020;2023-03-14T15:34:08;13.23;;;3.38;;
53959;SDS011;39866;48.638;-2.020;2023-03-14T15:36:34;16.55;;;3.40;;
53959;SDS011;39866;48.638;-2.020;2023-03-14T15:39:01;15.75;;;3.53;;
53959;SDS011;39866;48.638;-2.020;2023-03-14T15:41:29;11.68;;;3.33;;
53959;SDS011;39866;48.638;-2.020;2023-03-14T15:43:54;10.43;;;3.70;;
53959;SDS011;39866;48.638;-2.020;2023-03-14T15:46:20;12.32;;;3.58;;
53959;SDS011;39866;48.638;-2.020;2023-03-14T15:48:47;15.95;;;3.75;;
53959;SDS011;39866;48.638;-2.020;2023-03-14T15:51:13;10.88;;;3.90;;
53959;SDS011;39866;48.638;-2.020;2023-03-14T15:53:39;12.40;;;3.10;;
53959;SDS011;39866;48.638;-2.020;2023-03-14T15:56:06;14.30;;;4.07;;
53959;SDS011;39866;48.638;-2.020;2023-03-14T15:58:35;13.20;;;3.65;;